Colton, Washington
Current Conditions -  °F | °C
As of 12:53 PM on Monday 22 Dec 2014 (Local Time) from KPUW Reporting Station
Clear Clear  
Wind Chill: 35°   Ceiling: Unl
Heat Index: 42°   Visibility: 10mi
Dew Point: 32°   Wind: 14mph
Humidity: 67%   Direction: 270°W
Pressure: 30.22"   Gusts: NA
Location:  46.57°N, 117.13°W
Report Text: KPUW 222053Z AUTO 27012KT 10SM CLR 06/00 A3022 RMK AO2 SLP247 T00560000 51011
Loading
Personal Weather Stations






























Interactive Weather Map New forecast layout! Learn more

10-Day Weather Forecast

Advertisements
Track Severe Weather on mobile